createdAt,value
2023-07-03T00:00:44.013Z,698.00
2023-07-03T00:01:44.054Z,687.00
2023-07-03T00:02:44.135Z,697.00
2023-07-03T00:03:44.068Z,678.00
2023-07-03T00:04:44.161Z,733.00
2023-07-03T00:05:44.130Z,711.00
2023-07-03T00:06:44.618Z,705.00
2023-07-03T00:07:44.165Z,694.00
2023-07-03T00:08:44.201Z,708.00
2023-07-03T00:09:44.245Z,707.00
2023-07-03T00:10:44.234Z,740.00
2023-07-03T00:11:44.281Z,710.00
2023-07-03T00:12:44.281Z,715.00
2023-07-03T00:13:44.321Z,723.00
2023-07-03T00:14:44.334Z,718.00
2023-07-03T00:15:44.351Z,711.00
2023-07-03T00:16:44.473Z,717.00
2023-07-03T00:17:44.431Z,741.00
2023-07-03T00:18:44.443Z,725.00
2023-07-03T00:19:44.437Z,727.00
2023-07-03T00:20:44.458Z,720.00
2023-07-03T00:21:44.654Z,739.00
2023-07-03T00:22:44.509Z,725.00
2023-07-03T00:23:44.543Z,706.00
2023-07-03T00:24:44.533Z,702.00
2023-07-03T00:25:44.573Z,708.00
2023-07-03T00:26:44.595Z,711.00
2023-07-03T00:27:44.639Z,731.00
2023-07-03T00:28:44.656Z,726.00
2023-07-03T00:29:44.683Z,742.00
2023-07-03T00:30:44.737Z,728.00
2023-07-03T00:31:44.769Z,709.00
2023-07-03T00:32:44.797Z,725.00
2023-07-03T00:33:44.790Z,713.00
2023-07-03T00:34:44.846Z,715.00
2023-07-03T00:35:44.858Z,708.00
2023-07-03T00:36:44.888Z,689.00
2023-07-03T00:37:44.897Z,697.00
2023-07-03T00:38:44.929Z,713.00
2023-07-03T00:39:44.949Z,708.00
2023-07-03T00:40:44.999Z,704.00
2023-07-03T00:41:45.011Z,708.00
2023-07-03T00:42:45.036Z,701.00
2023-07-03T00:43:45.071Z,699.00
2023-07-03T00:44:45.089Z,724.00
2023-07-03T00:45:45.122Z,696.00
2023-07-03T00:46:45.190Z,697.00
2023-07-03T00:47:45.185Z,689.00
2023-07-03T00:48:45.213Z,699.00
2023-07-03T00:49:45.236Z,688.00
2023-07-03T00:50:45.278Z,684.00
2023-07-03T00:51:45.301Z,681.00
2023-07-03T00:52:45.343Z,684.00
2023-07-03T00:53:45.364Z,731.00
2023-07-03T00:54:45.404Z,727.00
2023-07-03T00:55:45.443Z,729.00
2023-07-03T00:56:45.471Z,717.00
2023-07-03T00:57:45.509Z,713.00
2023-07-03T00:58:45.509Z,692.00
2023-07-03T00:59:45.543Z,712.00
2023-07-03T01:00:53.107Z,694.00
2023-07-03T01:01:45.642Z,697.00
2023-07-03T01:02:45.720Z,701.00
2023-07-03T01:03:45.568Z,710.00
2023-07-03T01:04:45.626Z,708.00
2023-07-03T01:05:45.579Z,744.00
2023-07-03T01:06:45.539Z,726.00
2023-07-03T01:07:45.743Z,719.00
2023-07-03T01:08:45.539Z,700.00
2023-07-03T01:09:45.541Z,704.00
2023-07-03T01:10:45.515Z,713.00
2023-07-03T01:11:45.704Z,722.00
2023-07-03T01:12:45.529Z,723.00
2023-07-03T01:13:45.521Z,706.00
2023-07-03T01:14:45.490Z,712.00
2023-07-03T01:15:45.518Z,688.00
2023-07-03T01:16:45.576Z,689.00
2023-07-03T01:17:45.559Z,697.00
2023-07-03T01:18:45.456Z,695.00
2023-07-03T01:19:45.506Z,684.00
2023-07-03T01:20:45.456Z,678.00
2023-07-03T01:21:45.458Z,665.00
2023-07-03T01:22:45.474Z,688.00
2023-07-03T01:23:45.502Z,701.00
2023-07-03T01:24:45.540Z,682.00
2023-07-03T01:25:45.568Z,670.00
2023-07-03T01:26:45.616Z,689.00
2023-07-03T01:27:45.661Z,682.00
2023-07-03T01:28:45.672Z,695.00
2023-07-03T01:29:45.697Z,669.00
2023-07-03T01:30:45.756Z,699.00
2023-07-03T01:31:45.815Z,706.00
2023-07-03T01:32:45.833Z,693.00
2023-07-03T01:33:45.830Z,689.00
2023-07-03T01:34:45.858Z,689.00
2023-07-03T01:35:45.913Z,693.00
2023-07-03T01:36:45.968Z,672.00
2023-07-03T01:37:45.969Z,699.00
2023-07-03T01:38:45.999Z,673.00
2023-07-03T01:39:46.023Z,702.00
2023-07-03T01:40:46.041Z,709.00
2023-07-03T01:41:46.097Z,703.00
2023-07-03T01:42:46.125Z,696.00
2023-07-03T01:43:46.143Z,707.00
2023-07-03T01:44:46.172Z,701.00
2023-07-03T01:45:46.246Z,689.00
2023-07-03T01:46:46.231Z,699.00
2023-07-03T01:47:46.322Z,681.00
2023-07-03T01:48:46.304Z,691.00
2023-07-03T01:49:46.333Z,692.00
2023-07-03T01:50:46.360Z,691.00
2023-07-03T01:51:46.389Z,698.00
2023-07-03T01:52:46.430Z,677.00
2023-07-03T01:53:46.455Z,679.00
2023-07-03T01:54:46.489Z,679.00
2023-07-03T01:55:46.531Z,680.00
2023-07-03T01:56:46.567Z,694.00
2023-07-03T01:57:46.640Z,683.00
2023-07-03T01:58:46.636Z,698.00
2023-07-03T01:59:46.649Z,685.00
2023-07-03T02:00:46.677Z,680.00
2023-07-03T02:01:46.792Z,682.00
2023-07-03T02:02:46.822Z,674.00
2023-07-03T02:03:46.819Z,673.00
2023-07-03T02:04:46.878Z,670.00
2023-07-03T02:05:46.854Z,686.00
2023-07-03T02:06:46.888Z,690.00
2023-07-03T02:07:46.915Z,680.00
2023-07-03T02:08:46.963Z,675.00
2023-07-03T02:09:46.983Z,684.00
2023-07-03T02:10:47.700Z,701.00
2023-07-03T02:11:47.071Z,689.00
2023-07-03T02:12:47.104Z,683.00
2023-07-03T02:13:47.116Z,692.00
2023-07-03T02:14:47.141Z,678.00
2023-07-03T02:15:47.201Z,706.00
2023-07-03T02:16:47.239Z,686.00
2023-07-03T02:17:47.280Z,676.00
2023-07-03T02:18:47.270Z,688.00
2023-07-03T02:19:47.321Z,680.00
2023-07-03T02:20:47.331Z,674.00
2023-07-03T02:21:47.419Z,697.00
2023-07-03T02:22:47.405Z,676.00
2023-07-03T02:23:47.430Z,670.00
2023-07-03T02:24:47.465Z,674.00
2023-07-03T02:25:47.631Z,668.00
2023-07-03T02:26:47.545Z,665.00
2023-07-03T02:27:47.579Z,665.00
2023-07-03T02:28:47.578Z,671.00
2023-07-03T02:29:47.608Z,691.00
2023-07-03T02:30:47.690Z,695.00
2023-07-03T02:31:47.691Z,673.00
2023-07-03T02:32:47.742Z,678.00
2023-07-03T02:33:47.740Z,694.00
2023-07-03T02:34:47.771Z,700.00
2023-07-03T02:35:47.887Z,688.00
2023-07-03T02:36:47.858Z,680.00
2023-07-03T02:37:47.873Z,667.00
2023-07-03T02:38:47.916Z,677.00
2023-07-03T02:39:47.923Z,703.00
2023-07-03T02:40:47.988Z,678.00
2023-07-03T02:41:47.999Z,690.00
2023-07-03T02:42:48.010Z,684.00
2023-07-03T02:43:48.030Z,700.00
2023-07-03T02:44:48.066Z,687.00
2023-07-03T02:45:48.184Z,686.00
2023-07-03T02:46:48.215Z,679.00
2023-07-03T02:47:48.193Z,691.00
2023-07-03T02:48:48.210Z,685.00
2023-07-03T02:49:48.406Z,672.00
2023-07-03T02:50:48.282Z,673.00
2023-07-03T02:51:48.300Z,672.00
2023-07-03T02:52:48.354Z,665.00
2023-07-03T02:53:48.391Z,662.00
2023-07-03T02:54:48.402Z,666.00
2023-07-03T02:55:48.602Z,684.00
2023-07-03T02:56:48.482Z,667.00
2023-07-03T02:57:48.532Z,668.00
2023-07-03T02:58:48.544Z,685.00
2023-07-03T02:59:48.569Z,682.00
2023-07-03T03:00:48.662Z,701.00
2023-07-03T03:01:48.640Z,678.00
2023-07-03T03:02:48.721Z,666.00
2023-07-03T03:03:48.776Z,666.00
2023-07-03T03:04:48.850Z,671.00
2023-07-03T03:05:49.031Z,670.00
2023-07-03T03:06:48.822Z,666.00
2023-07-03T03:07:48.862Z,665.00
2023-07-03T03:08:48.905Z,665.00
2023-07-03T03:09:48.938Z,663.00
2023-07-03T03:10:48.961Z,659.00
2023-07-03T03:11:48.998Z,663.00
2023-07-03T03:12:49.049Z,658.00
2023-07-03T03:13:49.072Z,658.00
2023-07-03T03:14:49.109Z,661.00
2023-07-03T03:15:49.493Z,663.00
2023-07-03T03:16:49.272Z,666.00
2023-07-03T03:17:49.281Z,664.00
2023-07-03T03:18:49.254Z,685.00
2023-07-03T03:19:49.292Z,672.00
2023-07-03T03:20:49.363Z,662.00
2023-07-03T03:21:49.360Z,689.00
2023-07-03T03:22:49.420Z,663.00
2023-07-03T03:23:49.424Z,660.00
2023-07-03T03:24:49.462Z,658.00
2023-07-03T03:25:49.812Z,663.00
2023-07-03T03:26:49.531Z,662.00
2023-07-03T03:27:49.581Z,661.00
2023-07-03T03:28:49.606Z,665.00
2023-07-03T03:29:49.658Z,686.00
2023-07-03T03:30:49.722Z,685.00
2023-07-03T03:31:49.752Z,673.00
2023-07-03T03:32:49.836Z,665.00
2023-07-03T03:33:49.806Z,663.00
2023-07-03T03:34:49.853Z,655.00
2023-07-03T03:35:50.151Z,664.00
2023-07-03T03:36:49.955Z,664.00
2023-07-03T03:37:49.943Z,661.00
2023-07-03T03:38:49.984Z,667.00
2023-07-03T03:39:50.012Z,668.00
2023-07-03T03:40:50.032Z,662.00
2023-07-03T03:41:50.088Z,664.00
2023-07-03T03:42:50.110Z,660.00
2023-07-03T03:43:50.177Z,658.00
2023-07-03T03:44:50.180Z,662.00
2023-07-03T03:45:50.692Z,661.00
2023-07-03T03:46:50.248Z,661.00
2023-07-03T03:47:50.348Z,658.00
2023-07-03T03:48:50.611Z,666.00
2023-07-03T03:49:50.373Z,655.00
2023-07-03T03:50:50.395Z,664.00
2023-07-03T03:51:50.422Z,659.00
2023-07-03T03:52:50.491Z,656.00
2023-07-03T03:53:50.524Z,662.00
2023-07-03T03:54:50.554Z,678.00
2023-07-03T03:55:50.867Z,664.00
2023-07-03T03:56:50.619Z,658.00
2023-07-03T03:57:50.637Z,658.00
2023-07-03T03:58:50.659Z,665.00
2023-07-03T03:59:50.679Z,660.00
2023-07-03T04:00:50.725Z,660.00
2023-07-03T04:01:50.780Z,664.00
2023-07-03T04:02:50.779Z,663.00
2023-07-03T04:03:50.859Z,669.00
2023-07-03T04:04:50.864Z,656.00
2023-07-03T04:05:51.048Z,658.00
2023-07-03T04:06:50.914Z,661.00
2023-07-03T04:07:50.928Z,666.00
2023-07-03T04:08:51.010Z,676.00
2023-07-03T04:09:51.004Z,659.00
2023-07-03T04:10:50.996Z,666.00
2023-07-03T04:11:51.038Z,665.00
2023-07-03T04:12:51.060Z,661.00
2023-07-03T04:13:51.135Z,656.00
2023-07-03T04:14:51.129Z,656.00
2023-07-03T04:15:52.507Z,654.00
2023-07-03T04:16:51.313Z,671.00
2023-07-03T04:17:51.237Z,658.00
2023-07-03T04:18:51.271Z,661.00
2023-07-03T04:19:51.287Z,664.00
2023-07-03T04:20:51.324Z,658.00
2023-07-03T04:21:51.347Z,656.00
2023-07-03T04:22:51.367Z,655.00
2023-07-03T04:23:51.417Z,655.00
2023-07-03T04:24:51.443Z,658.00
2023-07-03T04:25:51.641Z,653.00
2023-07-03T04:26:51.497Z,651.00
2023-07-03T04:27:51.531Z,643.00
2023-07-03T04:28:51.580Z,650.00
2023-07-03T04:29:51.613Z,650.00
2023-07-03T04:30:51.650Z,648.00
2023-07-03T04:31:51.737Z,651.00
2023-07-03T04:32:51.729Z,647.00
2023-07-03T04:33:51.722Z,655.00
2023-07-03T04:34:51.772Z,652.00
2023-07-03T04:35:52.030Z,647.00
2023-07-03T04:36:51.826Z,648.00
2023-07-03T04:37:51.855Z,652.00
2023-07-03T04:38:51.885Z,644.00
2023-07-03T04:39:51.921Z,647.00
2023-07-03T04:40:51.964Z,649.00
2023-07-03T04:41:52.006Z,652.00
2023-07-03T04:42:52.031Z,643.00
2023-07-03T04:43:52.202Z,644.00
2023-07-03T04:44:52.120Z,643.00
2023-07-03T04:45:52.446Z,644.00
2023-07-03T04:46:52.211Z,647.00
2023-07-03T04:47:52.258Z,643.00
2023-07-03T04:48:52.245Z,640.00
2023-07-03T04:49:52.265Z,648.00
2023-07-03T04:50:52.298Z,649.00
2023-07-03T04:51:52.353Z,652.00
2023-07-03T04:52:52.373Z,648.00
2023-07-03T04:53:52.429Z,650.00
2023-07-03T04:54:52.466Z,656.00
2023-07-03T04:55:52.768Z,646.00
2023-07-03T04:56:52.537Z,641.00
2023-07-03T04:57:52.538Z,658.00
2023-07-03T04:58:52.587Z,649.00
2023-07-03T04:59:52.618Z,643.00
2023-07-03T05:00:52.644Z,650.00
2023-07-03T05:01:52.824Z,652.00
2023-07-03T05:02:52.877Z,647.00
2023-07-03T05:03:52.804Z,644.00
2023-07-03T05:04:52.817Z,644.00
2023-07-03T05:05:52.991Z,645.00
2023-07-03T05:06:52.861Z,643.00
2023-07-03T05:07:52.944Z,642.00
2023-07-03T05:08:52.930Z,642.00
2023-07-03T05:09:52.973Z,649.00
2023-07-03T05:10:53.033Z,639.00
2023-07-03T05:11:53.048Z,641.00
2023-07-03T05:12:53.112Z,644.00
2023-07-03T05:13:53.107Z,642.00
2023-07-03T05:14:53.142Z,637.00
2023-07-03T05:15:53.427Z,637.00
2023-07-03T05:16:53.216Z,648.00
2023-07-03T05:17:53.278Z,643.00
2023-07-03T05:18:53.289Z,646.00
2023-07-03T05:19:53.343Z,650.00
2023-07-03T05:20:53.400Z,645.00
2023-07-03T05:21:53.424Z,640.00
2023-07-03T05:22:53.448Z,641.00
2023-07-03T05:23:53.496Z,651.00
2023-07-03T05:24:53.576Z,647.00
2023-07-03T05:25:53.893Z,642.00
2023-07-03T05:26:53.609Z,643.00
2023-07-03T05:27:53.760Z,643.00
2023-07-03T05:28:53.668Z,640.00
2023-07-03T05:29:53.800Z,641.00
2023-07-03T05:30:53.781Z,652.00
2023-07-03T05:31:54.299Z,646.00
2023-07-03T05:32:53.862Z,652.00
2023-07-03T05:33:53.895Z,640.00
2023-07-03T05:34:53.903Z,643.00
2023-07-03T05:35:54.797Z,645.00
2023-07-03T05:36:53.954Z,654.00
2023-07-03T05:37:54.008Z,672.00
2023-07-03T05:38:54.026Z,686.00
2023-07-03T05:39:54.084Z,758.00
2023-07-03T05:40:54.105Z,682.00
2023-07-03T05:41:54.294Z,707.00
2023-07-03T05:42:54.189Z,691.00
2023-07-03T05:43:54.226Z,684.00
2023-07-03T05:44:54.325Z,735.00
2023-07-03T05:45:54.503Z,738.00
2023-07-03T05:46:54.411Z,691.00
2023-07-03T05:47:54.440Z,779.00
2023-07-03T05:48:54.523Z,708.00
2023-07-03T05:49:54.460Z,680.00
2023-07-03T05:50:54.496Z,709.00
2023-07-03T05:51:54.557Z,782.00
2023-07-03T05:52:54.571Z,759.00
2023-07-03T05:53:54.633Z,762.00
2023-07-03T05:54:54.664Z,776.00
2023-07-03T05:55:54.709Z,782.00
2023-07-03T05:56:54.903Z,847.00
2023-07-03T05:57:54.779Z,842.00
2023-07-03T05:58:54.802Z,908.00
2023-07-03T05:59:54.808Z,931.00
2023-07-03T06:00:54.888Z,932.00
2023-07-03T06:01:55.413Z,981.00
2023-07-03T06:02:55.167Z,956.00
2023-07-03T06:03:54.965Z,1013.00
2023-07-03T06:04:55.060Z,1007.00
2023-07-03T06:05:55.234Z,1068.00
2023-07-03T06:06:55.027Z,1038.00
2023-07-03T06:07:55.049Z,1053.00
2023-07-03T06:08:55.066Z,1047.00
2023-07-03T06:09:55.168Z,1048.00
2023-07-03T06:10:55.100Z,1094.00
2023-07-03T06:11:55.157Z,1081.00
2023-07-03T06:12:55.139Z,1115.00
2023-07-03T06:13:55.169Z,1130.00
2023-07-03T06:14:55.177Z,1111.00
2023-07-03T06:15:55.200Z,1131.00
2023-07-03T06:16:55.310Z,1164.00
2023-07-03T06:17:55.334Z,1140.00
2023-07-03T06:18:55.252Z,1125.00
2023-07-03T06:19:55.268Z,1147.00
2023-07-03T06:20:55.285Z,1143.00
2023-07-03T06:21:55.311Z,1183.00
2023-07-03T06:22:55.312Z,1141.00
2023-07-03T06:23:55.323Z,1176.00
2023-07-03T06:24:55.340Z,1190.00
2023-07-03T06:25:55.364Z,1236.00
2023-07-03T06:26:55.370Z,1296.00
2023-07-03T06:27:55.380Z,1357.00
2023-07-03T06:28:55.396Z,1413.00
2023-07-03T06:29:55.405Z,1443.00
2023-07-03T06:30:55.482Z,1488.00
2023-07-03T06:31:55.430Z,1546.00
2023-07-03T06:32:55.489Z,1600.00
2023-07-03T06:33:55.424Z,1614.00
2023-07-03T06:34:55.497Z,1616.00
2023-07-03T06:35:55.700Z,1661.00
2023-07-03T06:36:55.436Z,1679.00
2023-07-03T06:37:55.424Z,1720.00
2023-07-03T06:38:55.415Z,1762.00
2023-07-03T06:39:55.484Z,1782.00
2023-07-03T06:40:55.455Z,1796.00
2023-07-03T06:41:55.823Z,1793.00
2023-07-03T06:42:55.505Z,1815.00
2023-07-03T06:43:55.414Z,1797.00
2023-07-03T06:44:55.445Z,1811.00
2023-07-03T06:45:57.259Z,1831.00
2023-07-03T06:46:55.432Z,1860.00
2023-07-03T06:47:55.411Z,1843.00
2023-07-03T06:48:55.382Z,1826.00
2023-07-03T06:49:55.371Z,1800.00
2023-07-03T06:50:55.397Z,1798.00
2023-07-03T06:51:55.846Z,1779.00
2023-07-03T06:52:55.349Z,1746.00
2023-07-03T06:53:55.350Z,1720.00
2023-07-03T06:54:55.326Z,1696.00
2023-07-03T06:55:56.969Z,1675.00
2023-07-03T06:56:55.342Z,1675.00
2023-07-03T06:57:55.323Z,1674.00
2023-07-03T06:58:55.361Z,1638.00
2023-07-03T06:59:55.328Z,1635.00
2023-07-03T07:00:55.302Z,1601.00
2023-07-03T07:01:55.370Z,1594.00
2023-07-03T07:02:55.423Z,1620.00
2023-07-03T07:03:55.329Z,1587.00
2023-07-03T07:04:55.371Z,1586.00
2023-07-03T07:05:55.809Z,1549.00
2023-07-03T07:06:55.295Z,1578.00
2023-07-03T07:07:55.384Z,1635.00
2023-07-03T07:08:55.244Z,1597.00
2023-07-03T07:09:55.246Z,1538.00
2023-07-03T07:10:55.246Z,1508.00
2023-07-03T07:11:55.228Z,1534.00
2023-07-03T07:12:55.235Z,1485.00
2023-07-03T07:13:55.217Z,1472.00
2023-07-03T07:14:55.304Z,1514.00
2023-07-03T07:15:55.223Z,1520.00
2023-07-03T07:16:55.312Z,1537.00
2023-07-03T07:17:55.199Z,1512.00
2023-07-03T07:18:55.189Z,1470.00
2023-07-03T07:19:56.709Z,1426.00
2023-07-03T07:20:55.180Z,1424.00
2023-07-03T07:21:55.165Z,1404.00
2023-07-03T07:22:55.159Z,1438.00
2023-07-03T07:23:55.157Z,1399.00
2023-07-03T07:24:55.148Z,1321.00
2023-07-03T07:25:56.380Z,1366.00
2023-07-03T07:26:55.148Z,1353.00
2023-07-03T07:27:55.170Z,1311.00
2023-07-03T07:28:55.122Z,1259.00
2023-07-03T07:29:55.109Z,1163.00
2023-07-03T07:30:55.251Z,1137.00
2023-07-03T07:31:55.130Z,1099.00
2023-07-03T07:32:55.115Z,1089.00
2023-07-03T07:33:55.093Z,1090.00
2023-07-03T07:34:55.074Z,1074.00
2023-07-03T07:35:55.090Z,925.00
2023-07-03T07:36:55.073Z,837.00
2023-07-03T07:37:55.066Z,835.00
2023-07-03T07:38:56.576Z,666.00
2023-07-03T07:39:55.053Z,648.00
2023-07-03T07:40:55.133Z,624.00
2023-07-03T07:41:55.138Z,618.00
2023-07-03T07:42:55.054Z,592.00
2023-07-03T07:43:55.070Z,564.00
2023-07-03T07:44:55.018Z,542.00
2023-07-03T07:45:55.036Z,498.00
2023-07-03T07:46:55.121Z,501.00
2023-07-03T07:47:55.019Z,510.00
2023-07-03T07:48:55.001Z,535.00
2023-07-03T07:49:55.030Z,541.00
2023-07-03T07:50:54.988Z,518.00
2023-07-03T07:51:54.990Z,506.00
2023-07-03T07:52:54.958Z,501.00
2023-07-03T07:53:54.982Z,500.00
2023-07-03T07:54:54.956Z,500.00
2023-07-03T07:55:54.973Z,504.00
2023-07-03T07:56:55.014Z,526.00
2023-07-03T07:57:55.053Z,505.00
2023-07-03T07:58:55.040Z,500.00
2023-07-03T07:59:55.087Z,499.00
2023-07-03T08:00:55.160Z,501.00
2023-07-03T08:01:55.158Z,524.00
2023-07-03T08:02:55.274Z,530.00
2023-07-03T08:03:55.192Z,548.00
2023-07-03T08:04:55.248Z,557.00
2023-07-03T08:05:55.172Z,560.00
2023-07-03T08:06:55.205Z,582.00
2023-07-03T08:07:55.211Z,597.00
2023-07-03T08:08:55.273Z,540.00
2023-07-03T08:09:55.235Z,521.00
2023-07-03T08:10:55.272Z,497.00
2023-07-03T08:11:55.316Z,494.00
2023-07-03T08:12:55.301Z,505.00
2023-07-03T08:13:55.343Z,504.00
2023-07-03T08:14:55.356Z,503.00
2023-07-03T08:15:55.597Z,532.00
2023-07-03T08:16:55.500Z,512.00
2023-07-03T08:17:55.453Z,519.00
2023-07-03T08:18:55.549Z,558.00
2023-07-03T08:19:55.454Z,506.00
2023-07-03T08:20:55.474Z,496.00
2023-07-03T08:21:55.560Z,499.00
2023-07-03T08:22:55.521Z,499.00
2023-07-03T08:23:55.568Z,518.00
2023-07-03T08:24:55.562Z,535.00
2023-07-03T08:25:55.609Z,514.00
2023-07-03T08:26:55.618Z,513.00
2023-07-03T08:27:55.667Z,500.00
2023-07-03T08:28:55.670Z,501.00
2023-07-03T08:29:57.136Z,502.00
2023-07-03T08:30:55.859Z,490.00
2023-07-03T08:31:55.858Z,505.00
2023-07-03T08:32:55.824Z,498.00
2023-07-03T08:33:55.895Z,500.00
2023-07-03T08:37:55.820Z,483.00
2023-07-03T08:38:55.812Z,450.00
2023-07-03T08:39:55.801Z,408.00
2023-07-03T08:40:55.827Z,400.00
2023-07-03T08:41:55.830Z,400.00
2023-07-03T08:42:55.799Z,400.00
2023-07-03T08:43:55.817Z,400.00
2023-07-03T08:44:55.776Z,473.00
2023-07-03T08:45:55.797Z,528.00
2023-07-03T08:47:10.324Z,547.00
2023-07-03T08:47:56.788Z,548.00
2023-07-03T08:48:55.749Z,555.00
2023-07-03T08:49:55.734Z,565.00
2023-07-03T08:50:56.081Z,573.00
2023-07-03T08:51:56.394Z,577.00
2023-07-03T08:52:55.715Z,611.00
2023-07-03T08:53:55.724Z,650.00
2023-07-03T08:54:55.777Z,699.00
2023-07-03T08:55:55.695Z,576.00
2023-07-03T08:56:55.686Z,603.00
2023-07-03T08:57:55.708Z,646.00
2023-07-03T08:58:55.763Z,792.00
2023-07-03T08:59:55.810Z,937.00
2023-07-03T09:00:55.917Z,1057.00
2023-07-03T09:01:55.905Z,1072.00
2023-07-03T09:02:56.007Z,1158.00
2023-07-03T09:03:56.011Z,1227.00
2023-07-03T09:04:56.045Z,1345.00
2023-07-03T09:05:56.068Z,1448.00
2023-07-03T09:06:56.157Z,1513.00
2023-07-03T09:07:56.108Z,1555.00
2023-07-03T09:08:56.141Z,1521.00
2023-07-03T09:09:56.200Z,1549.00
2023-07-03T09:10:56.199Z,1592.00
2023-07-03T09:11:56.407Z,1577.00
2023-07-03T09:12:56.236Z,1430.00
2023-07-03T09:13:56.248Z,1451.00
2023-07-03T09:14:56.263Z,1462.00
2023-07-03T09:15:56.321Z,1539.00
2023-07-03T09:16:56.346Z,1439.00
2023-07-03T09:17:56.407Z,1385.00
2023-07-03T09:18:56.399Z,1380.00
2023-07-03T09:19:56.396Z,1482.00
2023-07-03T09:20:56.514Z,1479.00
2023-07-03T09:21:56.426Z,1453.00
2023-07-03T09:22:56.506Z,1544.00
2023-07-03T09:23:57.307Z,1617.00
2023-07-03T09:24:56.562Z,1652.00
2023-07-03T09:25:57.751Z,1689.00
2023-07-03T09:26:58.508Z,1749.00
2023-07-03T09:27:56.507Z,1751.00
2023-07-03T09:28:56.477Z,1762.00
2023-07-03T09:29:56.536Z,1797.00
2023-07-03T09:30:56.572Z,1870.00
2023-07-03T09:31:57.079Z,1982.00
2023-07-03T09:32:56.713Z,2048.00
2023-07-03T09:33:56.443Z,2046.00
2023-07-03T09:34:56.535Z,2033.00
2023-07-03T09:35:56.987Z,2063.00
2023-07-03T09:36:56.428Z,2103.00
2023-07-03T09:37:56.475Z,2094.00
2023-07-03T09:38:56.523Z,2093.00
2023-07-03T09:39:56.466Z,2123.00
2023-07-03T09:40:59.651Z,2158.00
2023-07-03T09:41:56.472Z,2169.00
2023-07-03T09:42:56.465Z,2191.00
2023-07-03T09:43:56.450Z,2224.00
2023-07-03T09:44:56.438Z,2244.00
2023-07-03T09:45:56.439Z,2238.00
2023-07-03T09:46:56.459Z,2273.00
2023-07-03T09:47:56.515Z,2281.00
2023-07-03T09:48:56.449Z,2294.00
2023-07-03T09:49:56.949Z,2264.00
2023-07-03T09:51:56.408Z,2324.00
2023-07-03T09:53:07.387Z,2327.00
2023-07-03T09:53:57.371Z,2325.00
2023-07-03T09:54:56.439Z,2330.00
2023-07-03T09:55:56.375Z,2348.00
2023-07-03T09:56:56.374Z,2351.00
2023-07-03T09:57:56.356Z,2414.00
2023-07-03T09:58:56.350Z,2416.00
2023-07-03T09:59:56.362Z,2437.00
2023-07-03T10:00:56.690Z,2451.00
2023-07-03T10:03:56.402Z,2448.00
2023-07-03T10:06:56.403Z,2448.00
2023-07-03T10:07:56.389Z,2448.00
2023-07-03T10:11:56.332Z,2450.00
2023-07-03T10:12:56.335Z,2455.00
2023-07-03T10:13:56.241Z,2474.00
2023-07-03T10:14:56.241Z,2487.00
2023-07-03T10:15:56.237Z,2476.00
2023-07-03T10:16:56.262Z,2531.00
2023-07-03T10:17:56.261Z,2486.00
2023-07-03T10:18:56.226Z,2505.00
2023-07-03T10:19:56.211Z,2505.00
2023-07-03T10:20:56.203Z,2511.00
2023-07-03T10:21:56.217Z,2505.00
2023-07-03T10:22:56.182Z,2516.00
2023-07-03T10:23:56.209Z,2517.00
2023-07-03T10:24:56.176Z,2533.00
2023-07-03T10:25:56.182Z,2536.00
2023-07-03T10:26:56.171Z,2511.00
2023-07-03T10:27:56.160Z,2539.00
2023-07-03T10:28:56.156Z,2528.00
2023-07-03T10:29:56.163Z,2525.00
2023-07-03T10:30:56.130Z,2514.00
2023-07-03T10:31:56.187Z,2478.00
2023-07-03T10:32:56.153Z,2474.00
2023-07-03T10:33:56.133Z,2460.00
2023-07-03T10:34:56.104Z,2515.00
2023-07-03T10:35:56.096Z,2503.00
2023-07-03T10:36:56.108Z,2467.00
2023-07-03T10:37:56.088Z,2466.00
2023-07-03T10:38:56.095Z,2453.00
2023-07-03T10:39:56.074Z,2501.00
2023-07-03T10:40:56.066Z,2529.00
2023-07-03T10:41:56.078Z,2509.00
2023-07-03T10:42:56.246Z,2498.00
2023-07-03T10:43:56.048Z,2485.00
2023-07-03T10:44:56.058Z,2506.00
2023-07-03T10:45:56.095Z,2473.00
2023-07-03T10:46:56.033Z,2474.00
2023-07-03T10:47:56.072Z,2504.00
2023-07-03T10:48:56.011Z,2516.00
2023-07-03T10:49:56.010Z,2496.00
2023-07-03T10:50:55.992Z,2431.00
2023-07-03T10:51:56.004Z,2463.00
2023-07-03T10:52:55.983Z,2488.00
2023-07-03T10:53:55.982Z,2498.00
2023-07-03T10:54:55.969Z,2502.00
2023-07-03T10:55:55.959Z,2489.00
2023-07-03T10:56:55.963Z,2450.00
2023-07-03T10:57:55.954Z,2441.00
2023-07-03T10:58:56.026Z,2427.00
2023-07-03T10:59:55.968Z,2365.00
2023-07-03T11:00:55.983Z,2388.00
2023-07-03T11:01:56.030Z,2428.00
2023-07-03T11:02:56.002Z,2462.00
2023-07-03T11:04:15.749Z,2470.00
2023-07-03T11:04:56.951Z,2472.00
2023-07-03T11:05:55.901Z,2476.00
2023-07-03T11:06:55.897Z,2471.00
2023-07-03T11:07:55.882Z,2481.00
2023-07-03T11:08:55.887Z,2469.00
2023-07-03T11:09:55.880Z,2488.00
2023-07-03T11:10:55.869Z,2504.00
2023-07-03T11:11:55.884Z,2494.00
2023-07-03T11:12:55.853Z,2477.00
2023-07-03T11:13:55.946Z,2509.00
2023-07-03T11:14:55.939Z,2496.00
2023-07-03T11:15:55.902Z,2469.00
2023-07-03T11:16:55.920Z,2476.00
2023-07-03T11:19:55.939Z,2477.00
2023-07-03T11:22:55.906Z,2477.00
2023-07-03T11:23:58.475Z,2486.00
2023-07-03T11:24:56.125Z,2478.00
2023-07-03T11:27:56.176Z,2478.00
2023-07-03T11:28:56.164Z,2484.00
2023-07-03T11:29:56.165Z,2490.00
2023-07-03T11:30:56.254Z,2497.00
2023-07-03T11:31:56.286Z,2511.00
2023-07-03T11:32:56.222Z,2502.00
2023-07-03T11:35:56.119Z,2496.00
2023-07-03T11:39:56.154Z,2496.00
2023-07-03T11:40:56.106Z,2500.00
2023-07-03T11:43:56.061Z,2495.00
2023-07-03T11:44:56.047Z,2501.00
2023-07-03T11:45:56.060Z,2499.00
2023-07-03T11:46:56.120Z,2487.00
2023-07-03T11:47:56.061Z,2462.00
2023-07-03T11:48:56.039Z,2490.00
2023-07-03T11:49:56.025Z,2446.00
2023-07-03T11:50:56.020Z,2471.00
2023-07-03T11:51:56.045Z,2450.00
2023-07-03T11:52:56.002Z,2451.00
2023-07-03T11:53:56.008Z,2480.00
2023-07-03T11:54:55.976Z,2434.00
2023-07-03T11:55:55.980Z,2465.00
2023-07-03T11:56:56.026Z,2463.00
2023-07-03T11:58:08.958Z,2442.00
2023-07-03T11:58:58.740Z,2444.00
2023-07-03T11:59:55.976Z,2446.00
2023-07-03T12:00:56.012Z,2454.00
2023-07-03T12:01:55.957Z,2460.00
2023-07-03T12:02:55.956Z,2463.00
2023-07-03T12:03:55.985Z,2466.00
2023-07-03T12:04:55.910Z,2466.00
2023-07-03T12:05:55.949Z,2429.00
2023-07-03T12:06:55.883Z,2420.00
2023-07-03T12:07:55.900Z,2419.00
2023-07-03T12:08:55.887Z,2443.00
2023-07-03T12:09:55.866Z,2429.00
2023-07-03T12:10:56.889Z,2434.00
2023-07-03T12:11:55.852Z,2419.00
2023-07-03T12:12:55.858Z,2424.00
2023-07-03T12:13:55.874Z,2410.00
2023-07-03T12:14:55.829Z,2406.00
2023-07-03T12:15:55.845Z,2417.00
2023-07-03T12:16:55.923Z,2403.00
2023-07-03T12:17:55.855Z,2432.00
2023-07-03T12:18:55.797Z,2400.00
2023-07-03T12:19:55.806Z,2412.00
2023-07-03T12:20:55.782Z,2413.00
2023-07-03T12:21:55.773Z,2398.00
2023-07-03T12:22:55.774Z,2409.00
2023-07-03T12:23:55.768Z,2388.00
2023-07-03T12:24:55.754Z,2378.00
2023-07-03T12:25:55.757Z,2400.00
2023-07-03T12:26:55.749Z,2366.00
2023-07-03T12:27:55.738Z,2337.00
2023-07-03T12:28:55.738Z,2356.00
2023-07-03T12:29:55.737Z,2329.00
2023-07-03T12:30:55.747Z,2344.00
2023-07-03T12:31:55.707Z,2348.00
2023-07-03T12:32:55.756Z,2362.00
2023-07-03T12:33:55.700Z,2347.00
2023-07-03T12:34:55.690Z,2334.00
2023-07-03T12:35:55.677Z,2361.00
2023-07-03T12:37:02.157Z,2312.00
2023-07-03T12:37:56.699Z,2314.00
2023-07-03T12:38:55.661Z,2318.00
2023-07-03T12:39:55.655Z,2325.00
2023-07-03T12:40:55.645Z,2321.00
2023-07-03T12:41:55.636Z,2331.00
2023-07-03T12:42:55.640Z,2351.00
2023-07-03T12:44:07.388Z,2332.00